h-rez.com alexa rank chart, h-rez.com alexa rank daily changes

h-rez.com alexa rank chart, h-rez.com alexa rank daily changes

h-rez.com
Actual rank:
195 445

RANK HISTORY

Date Rank Diff
2017/03/22 195 445 +8 747
2017/03/21 186 698 +4 130
2017/03/20 182 568 +4 460
2017/03/19 178 108 -786
2017/03/18 178 894 +2 272
2017/03/17 176 622 +2 973
2017/03/16 173 649 +5 232
2017/03/15 168 417 +3 279
2017/03/14 165 138 -437
2017/03/13 165 575 +3 572
2017/03/12 162 003 +3 102
2017/03/11 158 901 -1 118
2017/03/10 160 019 +2 177
2017/03/09 157 842 -1 025
2017/03/08 158 867 +6 740
2017/03/07 152 127 -383
2017/03/06 152 510 -671
2017/03/01 153 181 -1 828
2017/02/28 155 009 +833
2017/02/27 154 176 +1 550
2017/02/26 152 626 +5 914
2017/02/25 146 712 -640
2017/02/24 147 352 +643
2017/02/23 146 709 +2 256
2017/02/22 144 453 -1 946
2017/02/21 146 399 -1 154
2017/02/20 147 553 +683
2017/02/19 146 870 -919
2017/02/18 147 789 -1 139
2017/02/17 148 928 -2 483
2017/02/16 151 411 -2 812
2017/02/15 154 223 +1 645
2017/02/14 152 578 +5 092
2017/02/13 147 486 +397
2017/02/12 147 089 -2 712
2017/02/11 149 801 +4 210
2017/02/10 145 591 -2 398
2017/02/09 147 989 -1 515
2017/02/08 149 504 -2 732
2017/02/07 152 236 +4 004
2017/02/06 148 232 -2 546
2017/02/05 150 778 +1 590
2017/02/04 149 188 -171
2017/02/03 149 359 -327
2017/02/02 149 686 +2 047
2017/02/01 147 639 +3 396
2017/01/31 144 243 -203
2017/01/30 144 446 +744
2017/01/29 143 702 -220
2017/01/28 143 922 +2 627
2017/01/27 141 295 -4 264
2017/01/26 145 559 -4 644
2017/01/25 150 203 -2 211
2017/01/24 152 414 -966
2017/01/23 153 380 -1 676
2017/01/22 155 056 -1 959
2017/01/21 157 015

WIDGET FOR YOUR SITE

DOMAINS WITH THE NEAREST RANK

Domain Rank
kagakukogyonippo.com 195 440
lalebit.ir 195 441
numl.edu.pk 195 442
pfu.jp 195 443
garanziagiovani.gov.it 195 444
h-rez.com 195 445
lpb-bw.de 195 446
manpower.ch 195 447
softsolutionslimited.com 195 448
mycorporation.com 195 449
audiokinetic.com 195 450

DOMAINS WITH THE NEAREST RANK BY TLD .com

Domain Rank
mytv365.com 195 431
hab-inc.com 195 433
noworrytube.com 195 438
dyxum.com 195 439
kagakukogyonippo.com 195 440
h-rez.com 195 445
softsolutionslimited.com 195 448
mycorporation.com 195 449
audiokinetic.com 195 450
mediaringtalk.com 195 452
picktu.com 195 453